Time;durP1;ratioP1;P1;durP2;ratioP2;P2;SDS_P1;SDS_P2;PMS_P1;PMS_P2;Temp;Humidity;BMP_temperature;BMP_pressure;BME280_temperature;BME280_humidity;BME280_pressure;Samples;Min_cycle;Max_cycle;Signal;HPM_P1;HPM_P2
2022/07/07 00:01:52;;;;;;;14.57;9.10;;;;;;;;;;5001625;28;20406;-85
2022/07/07 00:04:17;;;;;;;12.75;7.68;;;;;;;;;;4995788;28;20062;-86
2022/07/07 00:06:43;;;;;;;12.75;8.55;;;;;;;;;;4995530;28;20076;-86
2022/07/07 00:09:08;;;;;;;11.00;7.40;;;;;;;;;;5002837;28;20034;-86
2022/07/07 00:11:33;;;;;;;12.82;8.88;;;;;;;;;;4994949;28;20069;-86
2022/07/07 00:14:02;;;;;;;20.00;11.55;;;;;;;;;;5014491;28;20032;-84
2022/07/07 00:16:27;;;;;;;16.55;10.55;;;;;;;;;;4996165;28;20853;-85
2022/07/07 00:18:53;;;;;;;13.73;9.88;;;;;;;;;;5000983;28;20105;-84
2022/07/07 00:21:18;;;;;;;11.88;9.48;;;;;;;;;;4996638;28;20072;-86
2022/07/07 00:23:44;;;;;;;16.55;10.73;;;;;;;;;;5017593;28;20030;-83
2022/07/07 00:26:09;;;;;;;14.38;9.55;;;;;;;;;;5016312;28;20026;-85
2022/07/07 00:28:34;;;;;;;14.05;9.25;;;;;;;;;;4999663;28;20034;-85
2022/07/07 00:31:00;;;;;;;16.40;9.73;;;;;;;;;;5003270;28;20467;-86
2022/07/07 00:33:25;;;;;;;12.98;9.23;;;;;;;;;;4998294;28;20065;-86
2022/07/07 00:35:51;;;;;;;12.88;9.55;;;;;;;;;;4997595;28;20026;-85
2022/07/07 00:38:16;;;;;;;13.88;10.15;;;;;;;;;;4996208;28;20034;-86
2022/07/07 00:40:41;;;;;;;17.75;11.65;;;;;;;;;;5017252;28;20549;-86
2022/07/07 00:43:07;;;;;;;13.73;9.80;;;;;;;;;;5015630;28;20084;-84
2022/07/07 00:45:32;;;;;;;13.90;9.48;;;;;;;;;;5000780;28;20061;-85
2022/07/07 00:47:58;;;;;;;17.77;10.35;;;;;;;;;;5016618;28;20116;-85
2022/07/07 00:50:23;;;;;;;16.55;10.57;;;;;;;;;;5001369;28;20026;-86
2022/07/07 00:52:48;;;;;;;16.67;9.70;;;;;;;;;;5006468;28;20044;-85
2022/07/07 00:55:14;;;;;;;16.80;10.95;;;;;;;;;;5000296;28;20084;-87
2022/07/07 00:57:39;;;;;;;20.23;13.73;;;;;;;;;;5002754;28;20417;-87
2022/07/07 01:00:09;;;;;;;15.05;10.90;;;;;;;;;;4999675;28;20025;-87
2022/07/07 01:02:35;;;;;;;19.27;12.80;;;;;;;;;;5000402;28;20030;-85
2022/07/07 01:05:02;;;;;;;21.27;13.57;;;;;;;;;;5018178;28;20072;-87
2022/07/07 01:07:28;;;;;;;19.30;12.63;;;;;;;;;;5021764;28;20105;-87
2022/07/07 01:09:53;;;;;;;20.33;12.93;;;;;;;;;;5003308;28;20186;-85
2022/07/07 01:12:19;;;;;;;18.58;13.02;;;;;;;;;;5017199;28;20040;-85
2022/07/07 01:14:44;;;;;;;17.42;10.38;;;;;;;;;;5020761;28;20045;-87
2022/07/07 01:17:09;;;;;;;16.87;11.00;;;;;;;;;;5021273;28;20031;-86
2022/07/07 01:19:34;;;;;;;16.08;9.55;;;;;;;;;;5019870;28;20765;-86
2022/07/07 01:22:01;;;;;;;16.42;10.57;;;;;;;;;;5006077;28;20103;-86
2022/07/07 01:24:27;;;;;;;16.23;11.50;;;;;;;;;;5003416;28;20059;-85
2022/07/07 01:27:08;;;;;;;12.70;9.93;;;;;;;;;;5005150;28;20102;-84
2022/07/07 01:29:37;;;;;;;16.35;10.75;;;;;;;;;;5002210;28;20595;-84
2022/07/07 01:32:04;;;;;;;15.15;9.02;;;;;;;;;;5005714;28;20485;-85
2022/07/07 01:34:29;;;;;;;11.32;7.85;;;;;;;;;;5017318;28;20029;-85
2022/07/07 01:36:55;;;;;;;8.70;6.32;;;;;;;;;;5003877;28;20029;-84
2022/07/07 01:39:20;;;;;;;9.77;6.05;;;;;;;;;;5021655;28;20025;-86
2022/07/07 01:41:45;;;;;;;9.97;4.73;;;;;;;;;;5003661;28;20033;-86
2022/07/07 01:44:10;;;;;;;7.32;4.13;;;;;;;;;;5010143;28;20290;-86
2022/07/07 01:46:36;;;;;;;4.53;3.10;;;;;;;;;;5002753;28;20124;-85
2022/07/07 01:49:01;;;;;;;8.30;3.42;;;;;;;;;;5024462;28;20030;-86
2022/07/07 01:51:26;;;;;;;4.97;2.80;;;;;;;;;;5005563;28;20030;-86
2022/07/07 01:53:51;;;;;;;5.70;3.22;;;;;;;;;;5022143;28;20742;-83
2022/07/07 01:56:16;;;;;;;6.55;2.88;;;;;;;;;;5004834;28;20033;-83
2022/07/07 01:58:42;;;;;;;8.15;3.63;;;;;;;;;;5000061;28;20025;-82
2022/07/07 02:01:07;;;;;;;6.75;3.03;;;;;;;;;;5001307;28;20489;-83
2022/07/07 02:03:32;;;;;;;6.07;2.88;;;;;;;;;;5018761;28;20044;-85
2022/07/07 02:05:57;;;;;;;4.40;2.47;;;;;;;;;;5001346;28;20083;-84
2022/07/07 02:08:23;;;;;;;6.05;3.25;;;;;;;;;;5004289;28;20025;-87
2022/07/07 02:13:32;;;;;;;5.00;2.33;;;;;;;;;;5019522;28;20399;-86
2022/07/07 02:15:57;;;;;;;4.22;3.20;;;;;;;;;;5017174;28;20431;-87
2022/07/07 02:18:22;;;;;;;5.07;3.00;;;;;;;;;;5003347;28;20029;-84
2022/07/07 02:20:50;;;;;;;6.07;3.15;;;;;;;;;;5017567;28;20287;-87
2022/07/07 02:23:16;;;;;;;5.22;2.47;;;;;;;;;;5011366;28;20025;-84
2022/07/07 02:25:41;;;;;;;4.93;2.85;;;;;;;;;;5023928;28;20032;-87
2022/07/07 02:28:06;;;;;;;5.53;3.53;;;;;;;;;;5001773;28;20440;-85
2022/07/07 02:30:31;;;;;;;5.50;2.67;;;;;;;;;;5019446;28;20310;-84
2022/07/07 02:32:57;;;;;;;3.00;2.60;;;;;;;;;;5017740;28;20570;-84
2022/07/07 02:35:22;;;;;;;5.93;3.30;;;;;;;;;;5004542;28;20278;-87
2022/07/07 02:37:47;;;;;;;6.30;3.30;;;;;;;;;;5023213;28;20496;-88
2022/07/07 02:40:12;;;;;;;6.05;3.50;;;;;;;;;;5001194;28;20041;-84
2022/07/07 02:42:38;;;;;;;8.80;4.72;;;;;;;;;;5002952;28;20079;-88
2022/07/07 02:45:03;;;;;;;5.15;3.20;;;;;;;;;;5018879;28;20392;-87
2022/07/07 02:47:28;;;;;;;6.35;3.28;;;;;;;;;;5002321;28;20053;-84
2022/07/07 02:49:54;;;;;;;4.80;3.40;;;;;;;;;;5017967;28;20029;-84
2022/07/07 02:52:19;;;;;;;6.80;3.60;;;;;;;;;;4997681;28;20029;-84
2022/07/07 02:54:44;;;;;;;6.53;3.17;;;;;;;;;;5002328;28;20041;-84
2022/07/07 02:57:09;;;;;;;3.90;3.05;;;;;;;;;;5002151;28;20075;-83
2022/07/07 02:59:36;;;;;;;5.60;2.80;;;;;;;;;;5001307;28;20033;-86
2022/07/07 03:02:02;;;;;;;10.27;3.83;;;;;;;;;;5022690;28;20048;-87
2022/07/07 03:04:27;;;;;;;4.25;3.30;;;;;;;;;;5003168;28;20283;-87
2022/07/07 03:06:52;;;;;;;8.57;4.47;;;;;;;;;;5002587;28;20490;-87
2022/07/07 03:09:17;;;;;;;9.70;3.53;;;;;;;;;;5004541;28;20063;-88
2022/07/07 03:11:42;;;;;;;8.67;3.90;;;;;;;;;;5022823;28;20626;-86
2022/07/07 03:14:08;;;;;;;5.57;3.55;;;;;;;;;;5019206;28;20286;-87
2022/07/07 03:16:33;;;;;;;4.37;3.10;;;;;;;;;;5017106;28;20032;-84
2022/07/07 03:18:59;;;;;;;6.07;4.20;;;;;;;;;;5005497;28;20638;-86
2022/07/07 03:21:24;;;;;;;4.05;3.40;;;;;;;;;;5002035;28;20026;-87
2022/07/07 03:23:49;;;;;;;9.20;3.70;;;;;;;;;;5017551;28;20652;-86
2022/07/07 03:26:14;;;;;;;5.05;2.83;;;;;;;;;;5021820;28;20109;-83
2022/07/07 03:28:40;;;;;;;4.47;3.42;;;;;;;;;;5001535;28;20039;-83
2022/07/07 03:31:05;;;;;;;4.97;2.72;;;;;;;;;;5002079;28;20056;-88
2022/07/07 03:33:30;;;;;;;5.15;3.60;;;;;;;;;;5000118;28;20026;-83
2022/07/07 03:35:55;;;;;;;4.43;2.53;;;;;;;;;;5022250;28;20106;-89
2022/07/07 03:38:20;;;;;;;9.20;3.50;;;;;;;;;;4999811;28;20488;-83
2022/07/07 03:40:46;;;;;;;8.65;2.70;;;;;;;;;;5017562;28;20274;-82
2022/07/07 03:43:11;;;;;;;5.40;2.45;;;;;;;;;;5020546;28;20030;-82
2022/07/07 03:45:36;;;;;;;5.10;2.15;;;;;;;;;;5002131;28;20026;-83
2022/07/07 03:48:01;;;;;;;7.07;2.08;;;;;;;;;;5018855;28;20013;-88
2022/07/07 03:50:27;;;;;;;4.07;2.40;;;;;;;;;;5017170;28;20166;-88
2022/07/07 03:52:52;;;;;;;5.53;2.08;;;;;;;;;;5001842;28;20018;-83
2022/07/07 03:55:17;;;;;;;5.45;2.25;;;;;;;;;;5004667;28;20025;-87
2022/07/07 03:57:42;;;;;;;6.22;2.17;;;;;;;;;;5001226;28;20385;-83
2022/07/07 04:00:08;;;;;;;8.95;2.92;;;;;;;;;;5023559;28;20135;-86
2022/07/07 04:02:35;;;;;;;8.20;2.08;;;;;;;;;;5016156;28;20144;-85
2022/07/07 04:05:00;;;;;;;7.57;1.75;;;;;;;;;;5016620;28;20034;-86
2022/07/07 04:07:25;;;;;;;3.30;1.55;;;;;;;;;;5001233;28;20024;-85
2022/07/07 04:09:51;;;;;;;8.02;2.13;;;;;;;;;;5013389;28;20049;-84
2022/07/07 04:12:16;;;;;;;5.05;1.75;;;;;;;;;;5000665;28;20112;-89
2022/07/07 04:14:41;;;;;;;4.80;1.63;;;;;;;;;;5001304;28;20079;-87
2022/07/07 04:17:06;;;;;;;8.23;2.33;;;;;;;;;;5001972;28;20096;-91
2022/07/07 04:19:32;;;;;;;6.93;1.75;;;;;;;;;;5001213;28;20022;-91
2022/07/07 04:21:57;;;;;;;6.90;1.50;;;;;;;;;;5007560;28;20201;-87
2022/07/07 04:24:22;;;;;;;3.38;1.60;;;;;;;;;;5021250;28;20028;-90
2022/07/07 04:26:48;;;;;;;5.80;1.52;;;;;;;;;;5019959;28;20029;-90
2022/07/07 04:29:13;;;;;;;5.50;1.50;;;;;;;;;;5020561;28;20035;-87
2022/07/07 04:31:44;;;;;;;4.07;1.30;;;;;;;;;;5004535;28;20484;-88
2022/07/07 04:34:09;;;;;;;5.75;1.50;;;;;;;;;;5020532;28;20021;-90
2022/07/07 04:36:35;;;;;;;7.78;1.75;;;;;;;;;;5005745;28;20063;-86
2022/07/07 04:39:00;;;;;;;7.00;1.42;;;;;;;;;;5020078;28;20017;-88
2022/07/07 04:41:25;;;;;;;4.65;1.10;;;;;;;;;;5005181;28;20484;-86
2022/07/07 04:43:50;;;;;;;2.53;0.95;;;;;;;;;;5002493;28;20014;-89
2022/07/07 04:46:16;;;;;;;8.10;1.40;;;;;;;;;;5005441;28;20040;-90
2022/07/07 04:48:41;;;;;;;5.07;1.65;;;;;;;;;;5021774;28;20060;-88
2022/07/07 04:51:06;;;;;;;2.33;1.08;;;;;;;;;;5018401;28;20041;-86
2022/07/07 04:53:31;;;;;;;4.97;1.92;;;;;;;;;;5004730;28;20024;-86
2022/07/07 04:55:57;;;;;;;6.15;1.42;;;;;;;;;;5021193;28;20056;-89
2022/07/07 04:58:22;;;;;;;6.97;1.77;;;;;;;;;;5018800;28;20025;-89
2022/07/07 05:00:48;;;;;;;7.80;1.70;;;;;;;;;;5000542;28;20127;-85
2022/07/07 05:03:13;;;;;;;4.70;1.50;;;;;;;;;;4996054;28;20041;-88
2022/07/07 05:05:38;;;;;;;5.25;1.38;;;;;;;;;;5023334;28;20166;-88
2022/07/07 05:08:03;;;;;;;6.87;1.70;;;;;;;;;;5022489;28;20640;-84
2022/07/07 05:10:29;;;;;;;10.73;2.15;;;;;;;;;;5002332;28;20305;-88
2022/07/07 05:12:54;;;;;;;11.77;1.98;;;;;;;;;;5018491;28;20025;-89
2022/07/07 05:15:19;;;;;;;8.82;1.98;;;;;;;;;;5002760;28;20556;-85
2022/07/07 05:17:45;;;;;;;7.43;1.70;;;;;;;;;;5025577;28;20029;-89
2022/07/07 05:20:10;;;;;;;9.00;1.60;;;;;;;;;;5024396;28;20148;-89
2022/07/07 05:22:35;;;;;;;5.55;1.50;;;;;;;;;;5005621;28;20075;-90
2022/07/07 05:25:00;;;;;;;12.77;3.03;;;;;;;;;;5008575;28;20121;-84
2022/07/07 05:27:26;;;;;;;8.32;2.35;;;;;;;;;;5017823;28;20029;-85
2022/07/07 05:29:51;;;;;;;5.85;1.95;;;;;;;;;;5023186;28;20025;-85
2022/07/07 05:32:16;;;;;;;7.57;1.75;;;;;;;;;;5000115;28;20029;-89
2022/07/07 05:34:42;;;;;;;11.88;2.33;;;;;;;;;;5024685;28;20083;-89
2022/07/07 05:37:07;;;;;;;7.03;1.90;;;;;;;;;;5018889;28;20029;-85
2022/07/07 05:39:32;;;;;;;7.35;2.42;;;;;;;;;;5019290;28;20564;-84
2022/07/07 05:42:00;;;;;;;4.87;1.53;;;;;;;;;;5001849;28;20021;-88
2022/07/07 05:44:25;;;;;;;11.07;1.77;;;;;;;;;;5024662;28;20297;-91
2022/07/07 05:46:54;;;;;;;9.93;2.58;;;;;;;;;;5004028;28;20021;-89
2022/07/07 05:49:22;;;;;;;6.22;1.55;;;;;;;;;;5004896;28;20061;-89
2022/07/07 05:51:51;;;;;;;9.82;2.40;;;;;;;;;;5024562;28;20124;-84
2022/07/07 05:54:16;;;;;;;9.02;2.53;;;;;;;;;;5008609;28;20041;-85
2022/07/07 05:56:41;;;;;;;11.10;2.78;;;;;;;;;;5005637;28;20037;-89
2022/07/07 05:59:07;;;;;;;8.63;1.63;;;;;;;;;;4999972;28;20748;-88
2022/07/07 06:01:32;;;;;;;5.15;2.30;;;;;;;;;;5025444;28;20033;-84
2022/07/07 06:03:57;;;;;;;7.30;1.95;;;;;;;;;;5003152;28;20041;-88
2022/07/07 06:06:23;;;;;;;7.65;1.90;;;;;;;;;;5002960;28;20487;-84
2022/07/07 06:08:48;;;;;;;8.57;3.00;;;;;;;;;;5002827;28;20037;-90
2022/07/07 06:11:13;;;;;;;8.40;1.90;;;;;;;;;;5019390;28;21479;-85
2022/07/07 06:13:38;;;;;;;10.65;1.55;;;;;;;;;;5024593;28;20305;-83
2022/07/07 06:16:04;;;;;;;6.38;1.25;;;;;;;;;;5004035;28;20047;-83
2022/07/07 06:18:29;;;;;;;5.82;1.52;;;;;;;;;;5027723;28;20022;-84
2022/07/07 06:20:54;;;;;;;6.82;1.50;;;;;;;;;;5023054;28;20389;-84
2022/07/07 06:23:19;;;;;;;5.40;1.20;;;;;;;;;;5004057;28;20461;-83
2022/07/07 06:25:45;;;;;;;12.38;2.78;;;;;;;;;;5025138;28;20030;-81
2022/07/07 06:28:11;;;;;;;10.55;2.17;;;;;;;;;;5005599;28;20080;-80
2022/07/07 06:30:36;;;;;;;5.75;2.03;;;;;;;;;;5021118;28;20079;-83
2022/07/07 06:33:01;;;;;;;8.07;1.63;;;;;;;;;;5025651;28;20134;-80
2022/07/07 06:35:27;;;;;;;7.47;1.75;;;;;;;;;;5023499;28;20029;-82
2022/07/07 06:37:57;;;;;;;4.13;1.73;;;;;;;;;;5019848;28;20025;-81
2022/07/07 06:40:22;;;;;;;11.20;2.75;;;;;;;;;;5021529;28;20029;-83
2022/07/07 06:42:47;;;;;;;4.10;1.45;;;;;;;;;;5021658;28;20108;-83
2022/07/07 06:45:12;;;;;;;7.60;2.13;;;;;;;;;;5004755;28;20036;-80
2022/07/07 06:47:38;;;;;;;5.83;1.13;;;;;;;;;;5005934;28;20119;-83
2022/07/07 06:50:03;;;;;;;3.63;1.40;;;;;;;;;;5004661;28;20758;-80
2022/07/07 06:52:28;;;;;;;6.50;1.55;;;;;;;;;;5019124;28;20033;-83
2022/07/07 06:54:55;;;;;;;7.28;1.13;;;;;;;;;;5004185;28;20033;-80
2022/07/07 06:57:20;;;;;;;7.22;1.30;;;;;;;;;;5017541;28;20026;-81
2022/07/07 06:59:45;;;;;;;3.72;1.27;;;;;;;;;;5021566;28;20432;-83
2022/07/07 07:02:10;;;;;;;4.32;1.40;;;;;;;;;;5023141;28;20029;-81
2022/07/07 07:04:35;;;;;;;3.60;1.30;;;;;;;;;;4993608;28;20512;-83
2022/07/07 07:07:01;;;;;;;3.47;1.00;;;;;;;;;;5003088;28;20014;-83
2022/07/07 07:09:26;;;;;;;3.08;1.15;;;;;;;;;;4997573;28;20693;-83
2022/07/07 07:11:52;;;;;;;4.90;0.90;;;;;;;;;;5014711;28;20367;-81
2022/07/07 07:14:18;;;;;;;2.17;0.80;;;;;;;;;;5012143;28;20026;-83
2022/07/07 07:16:43;;;;;;;3.97;0.82;;;;;;;;;;5002899;28;20029;-80
2022/07/07 07:19:08;;;;;;;3.53;1.15;;;;;;;;;;5002674;28;20034;-81
2022/07/07 07:21:34;;;;;;;1.95;0.73;;;;;;;;;;5000558;28;20060;-84
2022/07/07 07:23:59;;;;;;;6.25;1.20;;;;;;;;;;5000556;28;20367;-81
2022/07/07 07:26:24;;;;;;;5.07;1.40;;;;;;;;;;4998019;28;20055;-82
2022/07/07 07:28:49;;;;;;;8.63;1.30;;;;;;;;;;5002574;28;20014;-84
2022/07/07 07:31:15;;;;;;;2.30;1.17;;;;;;;;;;4998820;28;20441;-81
2022/07/07 07:33:40;;;;;;;5.85;1.70;;;;;;;;;;5004971;28;20026;-84
2022/07/07 07:36:08;;;;;;;8.35;1.20;;;;;;;;;;5006079;28;20401;-84
2022/07/07 07:38:35;;;;;;;6.60;1.23;;;;;;;;;;5003427;28;20030;-80
2022/07/07 07:41:00;;;;;;;2.63;1.00;;;;;;;;;;4997302;28;20038;-82
2022/07/07 07:43:25;;;;;;;4.03;1.27;;;;;;;;;;5018873;28;20056;-80
2022/07/07 07:45:54;;;;;;;4.63;1.45;;;;;;;;;;5005079;28;20038;-84
2022/07/07 07:48:19;;;;;;;4.93;1.63;;;;;;;;;;5007930;28;20080;-84
2022/07/07 07:50:47;;;;;;;4.95;1.50;;;;;;;;;;5002562;28;20038;-81
2022/07/07 07:53:12;;;;;;;6.35;1.30;;;;;;;;;;5003734;28;20429;-81
2022/07/07 07:55:39;;;;;;;6.50;1.60;;;;;;;;;;5004901;28;20034;-82
2022/07/07 07:58:04;;;;;;;2.92;1.10;;;;;;;;;;5004100;28;20046;-81
2022/07/07 08:00:29;;;;;;;5.85;1.27;;;;;;;;;;5000088;28;20575;-83
2022/07/07 08:02:54;;;;;;;6.18;1.23;;;;;;;;;;5002568;28;20026;-80
2022/07/07 08:05:20;;;;;;;3.63;1.02;;;;;;;;;;5005792;28;20548;-82
2022/07/07 08:07:48;;;;;;;2.60;1.10;;;;;;;;;;5001483;28;20136;-81
2022/07/07 08:10:14;;;;;;;3.45;0.70;;;;;;;;;;5006420;28;20025;-80
2022/07/07 08:12:43;;;;;;;6.35;2.03;;;;;;;;;;5019351;28;20446;-80
2022/07/07 08:15:11;;;;;;;4.68;1.67;;;;;;;;;;5006011;28;20029;-80
2022/07/07 08:17:36;;;;;;;5.53;1.98;;;;;;;;;;5005008;28;20117;-82
2022/07/07 08:20:02;;;;;;;6.75;1.15;;;;;;;;;;5004992;28;20104;-81
2022/07/07 08:22:30;;;;;;;4.75;1.30;;;;;;;;;;5008611;28;20029;-83
2022/07/07 08:24:55;;;;;;;5.72;1.50;;;;;;;;;;5006625;28;20065;-83
2022/07/07 08:27:23;;;;;;;5.85;1.20;;;;;;;;;;5004824;28;20049;-83
2022/07/07 08:29:51;;;;;;;6.57;1.23;;;;;;;;;;5026606;28;20022;-81
2022/07/07 08:32:17;;;;;;;4.72;1.65;;;;;;;;;;5015644;28;20124;-83
2022/07/07 08:34:45;;;;;;;4.75;1.30;;;;;;;;;;5012024;28;20124;-83
2022/07/07 08:37:11;;;;;;;7.70;1.40;;;;;;;;;;5023418;28;20109;-83
2022/07/07 08:39:36;;;;;;;6.68;1.70;;;;;;;;;;5021857;28;20038;-81
2022/07/07 08:42:02;;;;;;;4.90;1.15;;;;;;;;;;5020317;28;20470;-83
2022/07/07 08:44:27;;;;;;;5.18;1.27;;;;;;;;;;5009168;28;20042;-82
2022/07/07 08:46:56;;;;;;;7.32;2.00;;;;;;;;;;5005949;28;20539;-82
2022/07/07 08:49:21;;;;;;;7.13;1.30;;;;;;;;;;5004817;28;20044;-80
2022/07/07 08:51:46;;;;;;;6.28;1.48;;;;;;;;;;5006456;28;20398;-83
2022/07/07 08:54:13;;;;;;;10.52;1.80;;;;;;;;;;5005686;28;20436;-83
2022/07/07 08:56:39;;;;;;;6.53;2.10;;;;;;;;;;5003385;28;20120;-81
2022/07/07 08:59:06;;;;;;;7.68;2.17;;;;;;;;;;5006949;28;20072;-81
2022/07/07 09:01:31;;;;;;;9.45;1.70;;;;;;;;;;5006499;28;20133;-80
2022/07/07 09:03:56;;;;;;;5.65;1.10;;;;;;;;;;5014832;28;20132;-83
2022/07/07 09:06:21;;;;;;;4.88;1.17;;;;;;;;;;5006004;28;20037;-81
2022/07/07 09:08:47;;;;;;;6.15;1.10;;;;;;;;;;5027208;28;20358;-83
2022/07/07 09:11:12;;;;;;;5.15;1.92;;;;;;;;;;5026207;28;20026;-81
2022/07/07 09:13:37;;;;;;;6.40;1.25;;;;;;;;;;5002307;28;20025;-82
2022/07/07 09:16:06;;;;;;;4.82;1.35;;;;;;;;;;5026528;28;20026;-81
2022/07/07 09:18:32;;;;;;;4.30;1.13;;;;;;;;;;5026528;28;20029;-81
2022/07/07 09:20:57;;;;;;;7.13;1.20;;;;;;;;;;5029544;28;20395;-84
2022/07/07 09:23:22;;;;;;;5.32;1.52;;;;;;;;;;5009995;28;20036;-83
2022/07/07 09:25:47;;;;;;;5.25;1.52;;;;;;;;;;5029801;28;20029;-83
2022/07/07 09:28:13;;;;;;;7.65;1.88;;;;;;;;;;5027773;28;20018;-83
2022/07/07 09:30:40;;;;;;;6.33;3.07;;;;;;;;;;5023433;28;20033;-84
2022/07/07 09:33:09;;;;;;;4.65;1.50;;;;;;;;;;5023055;28;20275;-81
2022/07/07 09:38:23;;;;;;;4.35;0.93;;;;;;;;;;5029341;28;20044;-82
2022/07/07 09:41:08;;;;;;;4.10;1.00;;;;;;;;;;5012639;28;20021;-81
2022/07/07 09:43:38;;;;;;;3.55;1.23;;;;;;;;;;5024676;28;20025;-84
2022/07/07 09:46:07;;;;;;;7.53;1.10;;;;;;;;;;5006715;28;20044;-83
2022/07/07 09:48:33;;;;;;;4.07;1.30;;;;;;;;;;5024463;28;20116;-81
2022/07/07 09:51:10;;;;;;;4.35;2.58;;;;;;;;;;5028424;28;20128;-81
2022/07/07 09:53:51;;;;;;;6.85;1.67;;;;;;;;;;5021467;28;20034;-83
2022/07/07 09:56:16;;;;;;;5.72;1.50;;;;;;;;;;5024893;28;20466;-80
2022/07/07 09:58:41;;;;;;;5.05;1.55;;;;;;;;;;5022455;28;20032;-81
2022/07/07 10:01:07;;;;;;;5.80;1.63;;;;;;;;;;5009067;28;20040;-83
2022/07/07 10:03:33;;;;;;;5.95;1.48;;;;;;;;;;5022922;28;20385;-81
2022/07/07 10:05:59;;;;;;;4.13;1.25;;;;;;;;;;5026400;28;20397;-83
2022/07/07 10:08:24;;;;;;;5.13;2.22;;;;;;;;;;5026580;28;20025;-81
2022/07/07 10:10:49;;;;;;;5.10;1.58;;;;;;;;;;5008221;28;20025;-82
2022/07/07 10:13:14;;;;;;;3.72;1.50;;;;;;;;;;5023676;28;20133;-83
2022/07/07 10:15:40;;;;;;;7.60;2.17;;;;;;;;;;5023911;28;20183;-81
2022/07/07 10:18:05;;;;;;;4.60;2.60;;;;;;;;;;5027663;28;20040;-83
2022/07/07 10:20:30;;;;;;;3.78;1.35;;;;;;;;;;5008750;28;20240;-82
2022/07/07 10:22:56;;;;;;;6.20;1.30;;;;;;;;;;5029251;28;20025;-81
2022/07/07 10:25:21;;;;;;;4.53;1.70;;;;;;;;;;5004193;28;20278;-81
2022/07/07 10:27:50;;;;;;;5.40;2.30;;;;;;;;;;5025996;28;20025;-82
2022/07/07 10:30:29;;;;;;;5.78;1.60;;;;;;;;;;5023793;28;20044;-81
2022/07/07 10:32:55;;;;;;;6.60;2.08;;;;;;;;;;5025253;28;20100;-83
2022/07/07 10:35:23;;;;;;;3.97;1.70;;;;;;;;;;5025945;28;20429;-84
2022/07/07 10:37:49;;;;;;;3.33;1.60;;;;;;;;;;5029348;28;20420;-83
2022/07/07 10:40:25;;;;;;;5.50;1.67;;;;;;;;;;5022894;28;20037;-82
2022/07/07 10:43:09;;;;;;;5.80;2.10;;;;;;;;;;5027068;28;20078;-83
2022/07/07 10:45:34;;;;;;;6.47;2.03;;;;;;;;;;5018375;28;20124;-84
2022/07/07 10:48:00;;;;;;;5.03;2.00;;;;;;;;;;5023589;28;20152;-81
2022/07/07 10:50:26;;;;;;;4.80;1.80;;;;;;;;;;5025656;28;20344;-83
2022/07/07 10:52:52;;;;;;;8.15;2.05;;;;;;;;;;5006889;28;20033;-84
2022/07/07 10:55:17;;;;;;;4.43;1.45;;;;;;;;;;5023567;28;20373;-80
2022/07/07 10:57:46;;;;;;;4.07;1.83;;;;;;;;;;5025582;28;20034;-83
2022/07/07 11:00:12;;;;;;;5.72;2.53;;;;;;;;;;5024419;28;20128;-83
2022/07/07 11:02:41;;;;;;;10.07;2.38;;;;;;;;;;5016466;28;20030;-81
2022/07/07 11:05:15;;;;;;;5.70;2.20;;;;;;;;;;5008479;28;20051;-83
2022/07/07 11:07:56;;;;;;;8.45;1.60;;;;;;;;;;5004045;28;20149;-84
2022/07/07 11:10:21;;;;;;;6.13;1.95;;;;;;;;;;5006933;28;20060;-84
2022/07/07 11:12:48;;;;;;;4.82;2.25;;;;;;;;;;5026836;28;20477;-84
2022/07/07 11:15:22;;;;;;;4.40;2.00;;;;;;;;;;5021457;28;20073;-81
2022/07/07 11:17:55;;;;;;;5.38;2.13;;;;;;;;;;5022988;28;20056;-83
2022/07/07 11:20:21;;;;;;;12.40;2.15;;;;;;;;;;5026668;28;20694;-80
2022/07/07 11:22:48;;;;;;;6.78;2.28;;;;;;;;;;5007927;28;20033;-80
2022/07/07 11:25:15;;;;;;;7.63;2.30;;;;;;;;;;5003911;28;20021;-83
2022/07/07 11:27:42;;;;;;;11.02;2.88;;;;;;;;;;5003229;28;20722;-82
2022/07/07 11:30:07;;;;;;;6.85;2.50;;;;;;;;;;5019643;28;20199;-83
2022/07/07 11:32:36;;;;;;;10.52;3.00;;;;;;;;;;5020820;28;20065;-81
2022/07/07 11:35:05;;;;;;;12.50;3.30;;;;;;;;;;5005200;28;20166;-82
2022/07/07 11:37:31;;;;;;;16.83;3.67;;;;;;;;;;5021371;28;20029;-80
2022/07/07 11:39:57;;;;;;;11.15;2.63;;;;;;;;;;5002268;28;20041;-80
2022/07/07 11:42:23;;;;;;;10.95;3.30;;;;;;;;;;5021696;28;20124;-82
2022/07/07 11:44:48;;;;;;;9.00;2.53;;;;;;;;;;5023439;28;20030;-80
2022/07/07 11:47:14;;;;;;;9.13;3.13;;;;;;;;;;5010762;28;20024;-80
2022/07/07 11:49:40;;;;;;;12.00;3.60;;;;;;;;;;5021810;28;20022;-83
2022/07/07 11:52:06;;;;;;;15.35;3.35;;;;;;;;;;5025525;28;20462;-82
2022/07/07 11:54:31;;;;;;;10.48;2.83;;;;;;;;;;5023482;28;20030;-80
2022/07/07 11:56:56;;;;;;;11.57;2.70;;;;;;;;;;5009737;28;20025;-82
2022/07/07 11:59:22;;;;;;;14.35;3.22;;;;;;;;;;5024440;28;20038;-83
2022/07/07 12:01:51;;;;;;;12.35;3.67;;;;;;;;;;5026751;28;20022;-81
2022/07/07 12:04:20;;;;;;;12.48;3.05;;;;;;;;;;5022533;28;20049;-82
2022/07/07 12:06:46;;;;;;;19.75;3.78;;;;;;;;;;5005712;28;20026;-84
2022/07/07 12:09:11;;;;;;;13.07;2.70;;;;;;;;;;5021627;28;20034;-83
2022/07/07 12:11:39;;;;;;;16.17;3.55;;;;;;;;;;5028161;28;20021;-81
2022/07/07 12:14:05;;;;;;;10.75;2.53;;;;;;;;;;5001871;28;20052;-81
2022/07/07 12:16:41;;;;;;;17.60;3.65;;;;;;;;;;5022199;28;20381;-83
2022/07/07 12:19:06;;;;;;;14.18;3.30;;;;;;;;;;5013423;28;20037;-83
2022/07/07 12:21:31;;;;;;;8.98;2.42;;;;;;;;;;5025224;28;20383;-83
2022/07/07 12:23:56;;;;;;;10.18;2.30;;;;;;;;;;5023278;28;20079;-83
2022/07/07 12:26:25;;;;;;;9.15;3.25;;;;;;;;;;5024671;28;20447;-82
2022/07/07 12:28:50;;;;;;;11.35;3.67;;;;;;;;;;5020854;28;20099;-82
2022/07/07 12:31:17;;;;;;;18.40;3.03;;;;;;;;;;5004570;28;20362;-83
2022/07/07 12:33:42;;;;;;;11.68;3.53;;;;;;;;;;5007855;28;20029;-82
2022/07/07 12:36:07;;;;;;;6.97;2.15;;;;;;;;;;5027902;28;20507;-83
2022/07/07 12:38:37;;;;;;;9.25;2.33;;;;;;;;;;5024781;28;20056;-82
2022/07/07 12:41:02;;;;;;;8.93;2.20;;;;;;;;;;5013660;28;20028;-82
2022/07/07 12:43:32;;;;;;;9.32;2.22;;;;;;;;;;5031343;28;20026;-83
2022/07/07 12:46:04;;;;;;;8.68;2.38;;;;;;;;;;5027746;28;20038;-83
2022/07/07 12:48:40;;;;;;;17.75;3.10;;;;;;;;;;5010106;28;20026;-83
2022/07/07 12:51:06;;;;;;;8.27;2.20;;;;;;;;;;5009466;28;20040;-81
2022/07/07 12:53:35;;;;;;;9.55;2.53;;;;;;;;;;5010240;28;20464;-84
2022/07/07 12:56:06;;;;;;;10.25;2.15;;;;;;;;;;5011838;28;20421;-81
2022/07/07 12:58:38;;;;;;;13.52;2.20;;;;;;;;;;5029323;28;20044;-82
2022/07/07 13:01:04;;;;;;;18.20;4.82;;;;;;;;;;5025808;28;20500;-81
2022/07/07 13:03:31;;;;;;;10.73;2.28;;;;;;;;;;5029182;28;20030;-81
2022/07/07 13:05:56;;;;;;;9.20;2.85;;;;;;;;;;5030230;28;20045;-81
2022/07/07 13:08:22;;;;;;;9.32;3.10;;;;;;;;;;5028724;28;20453;-82
2022/07/07 13:10:48;;;;;;;7.78;2.03;;;;;;;;;;5009503;28;20029;-82
2022/07/07 13:13:13;;;;;;;8.38;2.20;;;;;;;;;;5029492;28;20099;-81
2022/07/07 13:15:38;;;;;;;14.50;2.70;;;;;;;;;;5009316;28;20101;-83
2022/07/07 13:18:03;;;;;;;9.13;3.78;;;;;;;;;;5016408;28;20021;-82
2022/07/07 13:20:30;;;;;;;6.28;2.42;;;;;;;;;;5026180;28;20034;-82
2022/07/07 13:22:55;;;;;;;9.88;2.53;;;;;;;;;;5026762;28;20486;-81
2022/07/07 13:25:20;;;;;;;9.52;2.47;;;;;;;;;;5008612;28;20143;-82
2022/07/07 13:27:45;;;;;;;6.07;2.40;;;;;;;;;;5027276;28;20018;-81
2022/07/07 13:30:11;;;;;;;14.13;3.13;;;;;;;;;;5024620;28;20072;-82
2022/07/07 13:32:36;;;;;;;8.85;2.42;;;;;;;;;;5028885;28;20370;-83
2022/07/07 13:35:04;;;;;;;6.57;1.83;;;;;;;;;;5029693;28;20037;-82
2022/07/07 13:37:30;;;;;;;5.75;2.78;;;;;;;;;;5007792;28;20548;-82
2022/07/07 13:39:55;;;;;;;9.55;2.50;;;;;;;;;;5024340;28;20025;-83
2022/07/07 13:42:20;;;;;;;6.50;2.80;;;;;;;;;;5003564;28;20037;-82
2022/07/07 13:44:45;;;;;;;7.93;2.13;;;;;;;;;;5022604;28;20282;-81
2022/07/07 13:47:13;;;;;;;9.65;2.70;;;;;;;;;;5023675;28;20367;-81
2022/07/07 13:49:39;;;;;;;5.50;2.20;;;;;;;;;;5027005;28;20370;-82
2022/07/07 13:52:10;;;;;;;8.15;2.25;;;;;;;;;;5024681;28;20057;-83
2022/07/07 13:54:37;;;;;;;8.32;2.65;;;;;;;;;;5019899;28;20435;-83
2022/07/07 13:57:02;;;;;;;9.98;2.20;;;;;;;;;;5007272;28;20014;-83
2022/07/07 13:59:28;;;;;;;8.95;2.10;;;;;;;;;;5026819;28;20480;-82
2022/07/07 14:01:53;;;;;;;8.37;2.70;;;;;;;;;;5007097;28;20029;-82
2022/07/07 14:04:18;;;;;;;7.90;2.25;;;;;;;;;;5021024;28;20322;-83
2022/07/07 14:06:46;;;;;;;14.32;3.00;;;;;;;;;;5022786;28;20041;-82
2022/07/07 14:09:15;;;;;;;10.45;2.38;;;;;;;;;;5006922;28;20036;-82
2022/07/07 14:11:43;;;;;;;11.10;2.75;;;;;;;;;;5007427;28;20481;-84
2022/07/07 14:14:11;;;;;;;17.40;3.40;;;;;;;;;;5020928;28;20091;-83
2022/07/07 14:16:40;;;;;;;8.68;2.85;;;;;;;;;;5022445;28;20068;-84
2022/07/07 14:19:05;;;;;;;14.07;3.17;;;;;;;;;;5025145;28;20116;-83
2022/07/07 14:21:30;;;;;;;14.25;2.80;;;;;;;;;;5007527;28;20108;-84
2022/07/07 14:23:56;;;;;;;10.75;2.38;;;;;;;;;;5024296;28;20075;-84
2022/07/07 14:26:22;;;;;;;12.40;2.55;;;;;;;;;;5006891;28;20059;-83
2022/07/07 14:28:49;;;;;;;15.52;3.25;;;;;;;;;;5003897;28;20029;-82
2022/07/07 14:31:14;;;;;;;9.63;2.22;;;;;;;;;;5024090;28;20040;-83
2022/07/07 14:33:39;;;;;;;10.27;2.10;;;;;;;;;;5009229;28;20029;-82
2022/07/07 14:36:05;;;;;;;9.03;2.23;;;;;;;;;;5022050;28;20027;-83
2022/07/07 14:38:30;;;;;;;9.68;2.60;;;;;;;;;;5017142;28;20302;-82